Terminal Aerodrome Forecast
Issued by NWS

Home | Current Version | Previous Version | Text Only | Print | Product List | Glossary Off
Versions: 1 2 3 4 5 6 7 8 9 10 11 12 13 14 15 16 17 18 19 20

000
FTUS43 KTOP 251552 AAA
TAFMHK
TAF AMD
KMHK 251552Z 2516/2612 VRB06KT P6SM BKN030
     FM251800 16009KT P6SM BKN050
     FM252300 18010KT P6SM VCTS SCT030CB
     FM260300 19011KT P6SM SCT250=

USA.gov is the U.S. government's official web portal to all federal, state and local government web resources and services.